createdAt,value
2022-12-17T00:00:08.072Z,102388.69
2022-12-17T00:02:53.826Z,102383.19
2022-12-17T00:05:47.337Z,102393.84
2022-12-17T00:08:33.162Z,102388.31
2022-12-17T00:11:19.832Z,102393.06
2022-12-17T00:14:06.847Z,102392.88
2022-12-17T00:16:54.773Z,102397.75
2022-12-17T00:19:43.037Z,102399.03
2022-12-17T00:22:31.338Z,102391.28
2022-12-17T00:25:21.018Z,102393.91
2022-12-17T00:28:07.868Z,102383.47
2022-12-17T00:30:56.237Z,102394.75
2022-12-17T00:33:44.321Z,102391.19
2022-12-17T00:36:30.681Z,102393.13
2022-12-17T00:39:21.614Z,102406.78
2022-12-17T00:42:19.613Z,102408.59
2022-12-17T00:45:05.673Z,102411.91
2022-12-17T00:47:51.696Z,102410.44
2022-12-17T00:50:37.685Z,102420.13
2022-12-17T00:53:23.665Z,102419.97
2022-12-17T00:56:11.716Z,102418.41
2022-12-17T00:58:58.411Z,102420.63
2022-12-17T01:01:45.229Z,102414.75
2022-12-17T01:04:31.568Z,102420.69
2022-12-17T01:07:17.899Z,102426.00
2022-12-17T01:10:05.364Z,102412.63
2022-12-17T01:12:54.592Z,102419.84
2022-12-17T01:15:42.701Z,102416.72
2022-12-17T01:18:35.208Z,102423.69
2022-12-17T01:21:21.725Z,102431.34
2022-12-17T01:24:09.069Z,102438.28
2022-12-17T01:26:58.060Z,102429.34
2022-12-17T01:29:46.112Z,102427.44
2022-12-17T01:32:33.036Z,102434.75
2022-12-17T01:35:18.975Z,102428.50
2022-12-17T01:38:07.806Z,102440.25
2022-12-17T01:40:55.146Z,102437.22
2022-12-17T01:43:52.787Z,102435.41
2022-12-17T01:46:42.086Z,102436.94
2022-12-17T01:49:31.085Z,102436.22
2022-12-17T01:52:21.237Z,102450.19
2022-12-17T01:55:08.287Z,102448.34
2022-12-17T01:57:55.288Z,102445.34
2022-12-17T02:00:41.837Z,102432.16
2022-12-17T02:03:35.816Z,102453.38
2022-12-17T02:06:30.740Z,102449.75
2022-12-17T02:09:31.321Z,102445.47
2022-12-17T02:12:39.958Z,102447.56
2022-12-17T02:15:36.784Z,102459.25
2022-12-17T02:18:36.241Z,102464.66
2022-12-17T02:21:25.582Z,102470.25
2022-12-17T02:24:24.221Z,102459.88
2022-12-17T02:27:14.657Z,102457.41
2022-12-17T02:30:07.707Z,102461.00
2022-12-17T02:32:57.049Z,102471.91
2022-12-17T02:35:48.370Z,102466.97
2022-12-17T02:38:42.066Z,102473.63
2022-12-17T02:41:33.479Z,102470.44
2022-12-17T02:44:22.720Z,102470.88
2022-12-17T02:47:11.892Z,102477.94
2022-12-17T02:49:58.453Z,102477.50
2022-12-17T02:52:46.675Z,102475.56
2022-12-17T02:55:32.623Z,102481.38
2022-12-17T02:58:18.720Z,102479.91
2022-12-17T03:01:09.253Z,102479.47
2022-12-17T03:03:54.215Z,102488.50
2022-12-17T03:06:42.147Z,102488.75
2022-12-17T03:09:36.821Z,102488.53
2022-12-17T03:12:25.158Z,102486.16
2022-12-17T03:15:12.068Z,102486.81
2022-12-17T03:18:00.203Z,102490.09
2022-12-17T03:20:46.369Z,102496.31
2022-12-17T03:23:43.454Z,102493.84
2022-12-17T03:26:30.394Z,102486.34
2022-12-17T03:29:23.968Z,102482.91
2022-12-17T03:32:10.976Z,102478.34
2022-12-17T03:34:58.748Z,102476.91
2022-12-17T03:37:44.626Z,102468.06
2022-12-17T03:40:36.191Z,102491.56
2022-12-17T03:43:27.834Z,102496.84
2022-12-17T03:46:14.562Z,102496.66
2022-12-17T03:49:02.213Z,102491.63
2022-12-17T03:51:50.385Z,102491.28
2022-12-17T03:54:36.505Z,102493.19
2022-12-17T03:57:22.802Z,102496.63
2022-12-17T04:00:10.205Z,102499.56
2022-12-17T04:02:59.318Z,102498.31
2022-12-17T04:05:45.675Z,102503.97
2022-12-17T04:08:33.371Z,102500.28
2022-12-17T04:11:23.076Z,102501.56
2022-12-17T04:14:23.827Z,102498.66
2022-12-17T04:17:11.664Z,102502.25
2022-12-17T04:19:58.485Z,102502.31
2022-12-17T04:22:44.745Z,102506.00
2022-12-17T04:25:33.820Z,102501.44
2022-12-17T04:28:20.133Z,102494.69
2022-12-17T04:31:05.958Z,102503.34
2022-12-17T04:33:52.026Z,102515.66
2022-12-17T04:36:39.925Z,102522.13
2022-12-17T04:39:28.111Z,102526.44
2022-12-17T04:42:16.204Z,102525.06
2022-12-17T04:45:02.327Z,102528.41
2022-12-17T04:47:48.490Z,102521.22
2022-12-17T04:50:34.707Z,102515.72
2022-12-17T04:53:22.065Z,102520.13
2022-12-17T04:56:08.538Z,102511.66
2022-12-17T04:58:55.937Z,102507.19
2022-12-17T05:01:43.014Z,102511.63
2022-12-17T05:04:29.359Z,102503.22
2022-12-17T05:07:16.182Z,102520.88
2022-12-17T05:10:02.514Z,102515.75
2022-12-17T05:12:48.968Z,102517.16
2022-12-17T05:15:33.515Z,102519.47
2022-12-17T05:18:23.771Z,102508.94
2022-12-17T05:21:09.706Z,102516.94
2022-12-17T05:23:55.962Z,102524.53
2022-12-17T05:26:46.358Z,102518.97
2022-12-17T05:29:33.404Z,102528.41
2022-12-17T05:32:29.443Z,102527.47
2022-12-17T05:35:16.238Z,102526.84
2022-12-17T05:38:04.394Z,102520.00
2022-12-17T05:40:51.601Z,102508.50
2022-12-17T05:43:38.476Z,102521.03
2022-12-17T05:46:26.976Z,102527.91
2022-12-17T05:49:16.271Z,102530.38
2022-12-17T05:52:02.416Z,102532.19
2022-12-17T05:54:48.227Z,102520.25
2022-12-17T05:57:47.040Z,102528.56
2022-12-17T06:00:36.607Z,102543.78
2022-12-17T06:03:24.027Z,102551.78
2022-12-17T06:06:15.195Z,102553.44
2022-12-17T06:09:01.636Z,102554.06
2022-12-17T06:11:48.105Z,102551.91
2022-12-17T06:14:35.154Z,102549.78
2022-12-17T06:17:21.156Z,102556.06
2022-12-17T06:20:08.984Z,102560.94
2022-12-17T06:22:56.267Z,102560.66
2022-12-17T06:25:42.529Z,102571.09
2022-12-17T06:28:29.774Z,102574.88
2022-12-17T06:31:15.894Z,102559.84
2022-12-17T06:34:01.822Z,102551.84
2022-12-17T06:36:47.993Z,102551.97
2022-12-17T06:39:35.947Z,102552.25
2022-12-17T06:42:21.940Z,102557.28
2022-12-17T06:45:09.005Z,102556.94
2022-12-17T06:47:55.268Z,102560.28
2022-12-17T06:50:41.081Z,102559.16
2022-12-17T06:53:28.885Z,102568.47
2022-12-17T06:56:19.063Z,102560.59
2022-12-17T06:59:05.325Z,102555.03
2022-12-17T07:01:51.072Z,102568.72
2022-12-17T07:04:37.522Z,102573.53
2022-12-17T07:07:23.521Z,102575.59
2022-12-17T07:10:13.886Z,102579.63
2022-12-17T07:13:02.631Z,102590.84
2022-12-17T07:15:49.363Z,102577.47
2022-12-17T07:18:36.246Z,102584.13
2022-12-17T07:21:22.745Z,102585.50
2022-12-17T07:24:10.633Z,102581.16
2022-12-17T07:26:56.908Z,102594.22
2022-12-17T07:29:45.606Z,102593.06
2022-12-17T07:32:31.765Z,102594.44
2022-12-17T07:35:18.137Z,102611.84
2022-12-17T07:38:04.177Z,102610.28
2022-12-17T07:40:50.589Z,102602.00
2022-12-17T07:43:37.725Z,102604.59
2022-12-17T07:46:27.577Z,102610.34
2022-12-17T07:49:13.544Z,102613.16
2022-12-17T07:52:00.046Z,102615.13
2022-12-17T07:54:47.890Z,102613.25
2022-12-17T07:57:37.453Z,102612.81
2022-12-17T08:00:24.952Z,102628.19
2022-12-17T08:03:17.657Z,102627.38
2022-12-17T08:06:00.458Z,102631.72
2022-12-17T08:08:46.426Z,102632.25
2022-12-17T08:11:32.403Z,102633.41
2022-12-17T08:14:18.483Z,102644.19
2022-12-17T08:17:04.775Z,102652.47
2022-12-17T08:19:52.472Z,102649.09
2022-12-17T08:22:39.311Z,102663.75
2022-12-17T08:25:27.157Z,102649.03
2022-12-17T08:28:41.536Z,102650.13
2022-12-17T08:31:22.025Z,102657.88
2022-12-17T08:34:09.737Z,102656.00
2022-12-17T08:36:57.668Z,102661.50
2022-12-17T08:39:46.221Z,102661.66
2022-12-17T08:42:31.993Z,102658.25
2022-12-17T08:45:18.447Z,102657.84
2022-12-17T08:48:05.504Z,102657.09
2022-12-17T08:50:52.296Z,102657.69
2022-12-17T08:53:40.216Z,102658.97
2022-12-17T08:56:26.570Z,102659.75
2022-12-17T08:59:13.077Z,102670.81
2022-12-17T09:01:59.539Z,102672.00
2022-12-17T09:04:45.726Z,102677.56
2022-12-17T09:07:32.249Z,102670.59
2022-12-17T09:10:24.850Z,102669.97
2022-12-17T09:13:10.898Z,102687.84
2022-12-17T09:15:57.190Z,102679.50
2022-12-17T09:18:46.355Z,102675.22
2022-12-17T09:21:34.127Z,102680.78
2022-12-17T09:24:20.224Z,102681.13
2022-12-17T09:27:07.746Z,102677.31
2022-12-17T09:29:53.393Z,102682.16
2022-12-17T09:32:39.570Z,102680.38
2022-12-17T09:35:26.714Z,102672.59
2022-12-17T09:38:13.108Z,102677.94
2022-12-17T09:41:04.005Z,102683.19
2022-12-17T09:44:02.224Z,102684.94
2022-12-17T09:46:57.485Z,102706.19
2022-12-17T09:49:47.663Z,102699.81
2022-12-17T09:52:41.144Z,102709.47
2022-12-17T09:55:45.342Z,102713.25
2022-12-17T09:58:39.999Z,102718.09
2022-12-17T10:01:35.058Z,102721.16
2022-12-17T10:04:23.247Z,102707.56
2022-12-17T10:07:13.990Z,102709.28
2022-12-17T10:10:03.988Z,102709.72
2022-12-17T10:12:49.861Z,102700.84
2022-12-17T10:15:35.981Z,102702.06
2022-12-17T10:18:29.841Z,102695.34
2022-12-17T10:21:21.047Z,102695.91
2022-12-17T10:24:25.373Z,102688.09
2022-12-17T10:27:19.848Z,102698.75
2022-12-17T10:30:05.862Z,102695.16
2022-12-17T10:32:51.533Z,102701.03
2022-12-17T10:35:43.057Z,102692.94
2022-12-17T10:38:32.434Z,102697.00
2022-12-17T10:41:20.609Z,102706.25
2022-12-17T10:44:06.659Z,102707.63
2022-12-17T10:46:53.646Z,102701.00
2022-12-17T10:49:43.249Z,102702.22
2022-12-17T10:52:46.763Z,102696.66
2022-12-17T10:55:44.115Z,102707.22
2022-12-17T10:58:34.571Z,102707.03
2022-12-17T11:01:23.575Z,102710.69
2022-12-17T11:04:12.317Z,102717.72
2022-12-17T11:07:03.311Z,102722.16
2022-12-17T11:10:08.588Z,102727.69
2022-12-17T11:13:00.944Z,102724.47
2022-12-17T11:15:57.468Z,102717.09
2022-12-17T11:18:49.105Z,102720.44
2022-12-17T11:21:42.989Z,102738.19
2022-12-17T11:24:36.649Z,102730.16
2022-12-17T11:27:30.232Z,102733.78
2022-12-17T11:30:16.421Z,102719.69
2022-12-17T11:33:39.562Z,102723.41
2022-12-17T11:36:38.675Z,102715.28
2022-12-17T11:39:34.156Z,102708.59
2022-12-17T11:42:38.773Z,102703.25
2022-12-17T11:45:36.490Z,102705.00
2022-12-17T11:48:30.554Z,102695.34
2022-12-17T11:51:25.962Z,102696.19
2022-12-17T11:54:30.607Z,102684.63
2022-12-17T11:57:37.203Z,102679.41
2022-12-17T12:00:36.568Z,102681.06
2022-12-17T12:03:39.295Z,102690.66
2022-12-17T12:06:36.316Z,102682.03
2022-12-17T12:09:33.531Z,102671.59
2022-12-17T12:12:33.213Z,102674.06
2022-12-17T12:15:29.677Z,102675.13
2022-12-17T12:18:22.100Z,102677.75
2022-12-17T12:21:49.749Z,102686.22
2022-12-17T12:25:06.988Z,102693.19
2022-12-17T12:28:03.414Z,102677.38
2022-12-17T12:30:59.789Z,102675.09
2022-12-17T12:34:05.138Z,102674.59
2022-12-17T12:36:53.551Z,102679.28
2022-12-17T12:39:54.709Z,102685.25
2022-12-17T12:42:52.649Z,102681.13
2022-12-17T12:46:03.917Z,102682.72
2022-12-17T12:49:01.338Z,102683.34
2022-12-17T12:51:52.400Z,102681.75
2022-12-17T12:54:50.789Z,102681.94
2022-12-17T12:57:53.669Z,102674.31
2022-12-17T13:01:03.766Z,102680.28
2022-12-17T13:03:55.347Z,102673.94
2022-12-17T13:06:54.283Z,102672.25
2022-12-17T13:09:40.672Z,102668.66
2022-12-17T13:12:37.522Z,102665.19
2022-12-17T13:15:27.763Z,102667.81
2022-12-17T13:18:16.327Z,102674.41
2022-12-17T13:21:00.757Z,102669.50
2022-12-17T13:23:36.636Z,102667.75
2022-12-17T13:26:23.696Z,102666.00
2022-12-17T13:29:12.183Z,102664.34
2022-12-17T13:31:59.339Z,102659.81
2022-12-17T13:34:37.517Z,102662.44
2022-12-17T13:37:15.849Z,102671.22
2022-12-17T13:39:54.054Z,102686.94
2022-12-17T13:42:31.360Z,102683.47
2022-12-17T13:45:05.992Z,102672.00
2022-12-17T13:47:38.447Z,102672.69
2022-12-17T13:50:38.600Z,102678.78
2022-12-17T13:53:13.727Z,102681.19
2022-12-17T13:55:43.177Z,102680.72
2022-12-17T13:58:25.110Z,102680.34
2022-12-17T14:01:04.597Z,102681.34
2022-12-17T14:03:57.181Z,102679.81
2022-12-17T14:06:25.248Z,102682.31
2022-12-17T14:08:58.852Z,102686.75
2022-12-17T14:11:46.020Z,102693.31
2022-12-17T14:14:23.330Z,102694.28
2022-12-17T14:16:51.966Z,102692.91
2022-12-17T14:19:20.442Z,102703.81
2022-12-17T14:21:49.407Z,102699.97
2022-12-17T14:24:27.027Z,102699.56
2022-12-17T14:26:58.690Z,102699.47
2022-12-17T14:29:31.835Z,102696.06
2022-12-17T14:32:03.257Z,102695.13
2022-12-17T14:34:45.694Z,102695.28
2022-12-17T14:37:22.497Z,102707.88
2022-12-17T14:39:55.727Z,102705.72
2022-12-17T14:42:29.839Z,102704.31
2022-12-17T14:45:02.345Z,102708.19
2022-12-17T14:47:34.829Z,102715.03
2022-12-17T14:50:08.331Z,102717.53
2022-12-17T14:52:42.452Z,102710.41
2022-12-17T14:55:40.709Z,102714.25
2022-12-17T14:58:23.305Z,102724.50
2022-12-17T15:00:56.505Z,102722.66
2022-12-17T15:03:28.699Z,102722.81
2022-12-17T15:06:02.489Z,102734.38
2022-12-17T15:08:39.165Z,102722.91
2022-12-17T15:11:11.742Z,102732.34
2022-12-17T15:13:40.839Z,102730.16
2022-12-17T15:16:10.983Z,102738.53
2022-12-17T15:18:40.124Z,102738.25
2022-12-17T15:21:13.278Z,102745.63
2022-12-17T15:23:52.793Z,102746.75
2022-12-17T15:29:36.267Z,102756.91
2022-12-17T15:32:04.868Z,102763.91
2022-12-17T15:34:33.582Z,102761.88
2022-12-17T15:37:01.953Z,102770.78
2022-12-17T15:39:31.056Z,102769.88
2022-12-17T15:42:18.478Z,102771.63
2022-12-17T15:44:47.387Z,102776.44
2022-12-17T15:47:16.361Z,102775.19
2022-12-17T15:49:45.578Z,102783.06
2022-12-17T15:52:15.507Z,102777.81
2022-12-17T15:54:44.721Z,102783.22
2022-12-17T15:57:18.712Z,102783.31
2022-12-17T15:59:48.488Z,102785.66
2022-12-17T16:02:17.315Z,102786.66
2022-12-17T16:04:47.053Z,102789.25
2022-12-17T16:07:16.713Z,102778.53
2022-12-17T16:09:46.096Z,102782.63
2022-12-17T16:12:18.198Z,102780.41
2022-12-17T16:14:47.215Z,102779.06
2022-12-17T16:20:13.999Z,102778.84
2022-12-17T16:22:43.822Z,102793.00
2022-12-17T16:25:13.340Z,102812.59
2022-12-17T16:27:44.535Z,102789.34
2022-12-17T16:30:16.658Z,102804.84
2022-12-17T16:32:46.859Z,102798.66
2022-12-17T16:35:18.740Z,102799.28
2022-12-17T16:37:48.848Z,102806.84
2022-12-17T16:40:21.326Z,102800.00
2022-12-17T16:42:56.537Z,102806.59
2022-12-17T16:45:26.321Z,102809.22
2022-12-17T16:47:57.121Z,102805.06
2022-12-17T16:50:32.472Z,102798.78
2022-12-17T16:53:02.983Z,102806.34
2022-12-17T16:55:33.509Z,102808.66
2022-12-17T16:58:06.596Z,102812.81
2022-12-17T17:00:37.998Z,102811.50
2022-12-17T17:03:09.315Z,102806.19
2022-12-17T17:06:08.361Z,102805.81
2022-12-17T17:08:40.935Z,102804.56
2022-12-17T17:11:15.814Z,102798.28
2022-12-17T17:13:47.229Z,102800.56
2022-12-17T17:16:21.030Z,102811.16
2022-12-17T17:18:51.154Z,102821.91
2022-12-17T17:21:30.801Z,102822.31
2022-12-17T17:24:03.540Z,102809.69
2022-12-17T17:26:35.873Z,102814.31
2022-12-17T17:29:07.837Z,102822.28
2022-12-17T17:34:37.533Z,102834.63
2022-12-17T17:37:10.278Z,102818.13
2022-12-17T17:39:39.722Z,102825.56
2022-12-17T17:42:09.756Z,102832.41
2022-12-17T17:44:40.373Z,102819.09
2022-12-17T17:47:09.137Z,102843.00
2022-12-17T17:49:37.998Z,102836.88
2022-12-17T17:52:10.388Z,102843.41
2022-12-17T17:54:43.328Z,102846.72
2022-12-17T17:57:13.404Z,102833.22
2022-12-17T17:59:43.739Z,102837.22
2022-12-17T18:02:13.318Z,102845.00
2022-12-17T18:04:43.105Z,102838.19
2022-12-17T18:07:28.860Z,102837.41
2022-12-17T18:09:59.930Z,102853.72
2022-12-17T18:12:46.485Z,102843.66
2022-12-17T18:15:19.349Z,102849.50
2022-12-17T18:17:52.607Z,102855.19
2022-12-17T18:20:21.957Z,102853.19
2022-12-17T18:22:51.007Z,102858.47
2022-12-17T18:25:23.004Z,102854.97
2022-12-17T18:27:54.451Z,102851.13
2022-12-17T18:30:24.775Z,102854.78
2022-12-17T18:32:53.598Z,102852.13
2022-12-17T18:35:23.471Z,102850.94
2022-12-17T18:37:53.515Z,102846.97
2022-12-17T18:40:22.488Z,102851.28
2022-12-17T18:43:08.478Z,102851.50
2022-12-17T18:45:39.508Z,102850.47
2022-12-17T18:48:09.585Z,102857.63
2022-12-17T18:50:39.984Z,102853.28
2022-12-17T18:53:09.613Z,102849.69
2022-12-17T18:55:40.787Z,102858.66
2022-12-17T18:58:13.186Z,102853.13
2022-12-17T19:00:45.086Z,102866.28
2022-12-17T19:03:15.082Z,102871.59
2022-12-17T19:05:47.229Z,102866.59
2022-12-17T19:08:18.490Z,102872.44
2022-12-17T19:10:47.061Z,102873.38
2022-12-17T19:13:17.397Z,102877.09
2022-12-17T19:15:48.330Z,102874.94
2022-12-17T19:18:17.804Z,102884.31
2022-12-17T19:20:46.902Z,102872.28
2022-12-17T19:23:16.685Z,102869.88
2022-12-17T19:25:45.859Z,102875.34
2022-12-17T19:28:14.519Z,102866.94
2022-12-17T19:30:44.256Z,102863.03
2022-12-17T19:33:14.633Z,102874.34
2022-12-17T19:35:57.380Z,102877.88
2022-12-17T19:38:27.272Z,102883.78
2022-12-17T19:40:56.690Z,102878.28
2022-12-17T19:43:27.045Z,102883.25
2022-12-17T19:46:01.836Z,102891.69
2022-12-17T19:48:36.095Z,102885.88
2022-12-17T19:51:07.196Z,102894.25
2022-12-17T19:53:38.543Z,102892.41
2022-12-17T19:56:18.261Z,102904.25
2022-12-17T19:58:48.906Z,102906.47
2022-12-17T20:01:22.356Z,102901.69
2022-12-17T20:03:56.867Z,102896.03
2022-12-17T20:06:29.621Z,102909.03
2022-12-17T20:09:02.013Z,102912.72
2022-12-17T20:11:36.542Z,102910.44
2022-12-17T20:14:08.871Z,102904.31
2022-12-17T20:16:42.606Z,102904.44
2022-12-17T20:19:17.012Z,102896.09
2022-12-17T20:21:46.383Z,102897.06
2022-12-17T20:24:18.352Z,102900.59
2022-12-17T20:26:53.305Z,102898.50
2022-12-17T20:29:23.618Z,102900.78
2022-12-17T20:31:53.890Z,102913.50
2022-12-17T20:34:25.609Z,102913.84
2022-12-17T20:36:55.800Z,102923.03
2022-12-17T20:39:27.756Z,102920.88
2022-12-17T20:41:58.072Z,102927.16
2022-12-17T20:44:27.269Z,102923.91
2022-12-17T20:46:56.579Z,102940.88
2022-12-17T20:49:26.991Z,102929.00
2022-12-17T20:51:55.827Z,102919.03
2022-12-17T20:54:24.518Z,102921.78
2022-12-17T20:56:56.774Z,102931.44
2022-12-17T20:59:25.384Z,102921.09
2022-12-17T21:01:56.473Z,102921.22
2022-12-17T21:04:28.741Z,102920.44
2022-12-17T21:06:58.225Z,102917.59
2022-12-17T21:09:27.221Z,102920.97
2022-12-17T21:12:03.798Z,102920.22
2022-12-17T21:14:35.758Z,102918.47
2022-12-17T21:17:05.469Z,102911.03
2022-12-17T21:19:36.258Z,102919.03
2022-12-17T21:22:05.609Z,102919.22
2022-12-17T21:24:35.116Z,102916.25
2022-12-17T21:27:03.802Z,102922.09
2022-12-17T21:29:32.565Z,102926.50
2022-12-17T21:32:00.962Z,102934.47
2022-12-17T21:34:33.112Z,102931.75
2022-12-17T21:37:06.207Z,102939.53
2022-12-17T21:39:38.603Z,102950.75
2022-12-17T21:42:26.435Z,102952.13
2022-12-17T21:44:56.771Z,102954.53
2022-12-17T21:47:26.881Z,102956.50
2022-12-17T21:49:57.092Z,102960.47
2022-12-17T21:52:28.581Z,102957.34
2022-12-17T21:54:57.655Z,102965.25
2022-12-17T21:57:26.528Z,102966.94
2022-12-17T21:59:55.022Z,102974.94
2022-12-17T22:02:24.196Z,102977.16
2022-12-17T22:04:53.363Z,102970.53
2022-12-17T22:07:24.387Z,102979.13
2022-12-17T22:10:27.251Z,102972.38
2022-12-17T22:13:08.113Z,102977.47
2022-12-17T22:15:45.122Z,102964.59
2022-12-17T22:18:17.453Z,102968.03
2022-12-17T22:20:45.955Z,102989.03
2022-12-17T22:23:15.715Z,102980.44
2022-12-17T22:25:46.477Z,102972.63
2022-12-17T22:28:15.676Z,102981.41
2022-12-17T22:31:02.207Z,102989.09
2022-12-17T22:33:51.738Z,102980.88
2022-12-17T22:37:08.125Z,102982.06
2022-12-17T22:42:40.399Z,102974.72
2022-12-17T22:44:37.050Z,102962.72
2022-12-17T22:45:13.761Z,102965.97
2022-12-17T22:47:42.976Z,102966.88
2022-12-17T22:50:12.709Z,102960.09
2022-12-17T22:52:42.281Z,102964.88
2022-12-17T22:55:15.477Z,102977.72
2022-12-17T22:57:46.507Z,102970.69
2022-12-17T23:00:21.913Z,102970.22
2022-12-17T23:02:55.438Z,102969.44
2022-12-17T23:05:26.682Z,102970.09
2022-12-17T23:07:55.821Z,102994.44
2022-12-17T23:10:26.565Z,102993.75
2022-12-17T23:12:57.779Z,102999.13
2022-12-17T23:15:31.199Z,103000.94
2022-12-17T23:18:07.708Z,103009.16
2022-12-17T23:20:38.419Z,103004.81
2022-12-17T23:23:08.133Z,102995.44
2022-12-17T23:25:37.811Z,102995.00
2022-12-17T23:28:09.419Z,103004.25
2022-12-17T23:30:40.202Z,103003.78
2022-12-17T23:33:08.818Z,103000.63
2022-12-17T23:35:37.259Z,102993.44
2022-12-17T23:38:06.887Z,102997.56
2022-12-17T23:40:35.969Z,102996.28
2022-12-17T23:43:05.159Z,102987.34
2022-12-17T23:45:35.609Z,102977.16
2022-12-17T23:48:07.970Z,102974.22
2022-12-17T23:50:36.569Z,102974.91
2022-12-17T23:53:05.478Z,102972.22
2022-12-17T23:55:35.483Z,102965.88
2022-12-17T23:58:04.177Z,102955.66
